Pagrindinis puslapis
METAR-TAF:

METAR-TAF

Oro uostai :

Paso de los Libresas, Argentina

platuma: 29-41S, ilguma: 057-09W, Aukštis: 69 m

Dabartinis oras

Ataskaita buvo paskelbta 37 minutes, ne 16:00 UTC
Vėjas 9 kt iš Rytų
Temperatūra 29°C
Drėgmė 66%
Slėgis 1006 hPa
Matomumas: 8000 m

METAR: SARL 151600Z 09009KT 8000 NSC 29/22 Q1006

Laikas: 13:37 (16:37 UTC)


TAF: trūkstamas

Orai ataskaitas ir orų prognozės (METAR, TAF).

turimą stotys yra geltonos ir raudonos taškus žemėlapyje.

Perkelti pele per norėdami pamatyti stoties vardą.

Tada spustelėkite, norėdami matyti oro stebėjimo ir prognozės.

Norėdami pakeisti žemėlapį: spustelėkite ant žalios mygtukų su juodo kryžiaus žemyn,; žalią mygtuką su brūkšneliu, jei norite nutolinti; arba žalių rodyklių gretimoms žemėlapius.


METAR-TAF: